Time;durP1;ratioP1;P1;durP2;ratioP2;P2;SDS_P1;SDS_P2;PMS_P1;PMS_P2;Temp;Humidity;BMP_temperature;BMP_pressure;BME280_temperature;BME280_humidity;BME280_pressure;Samples;Min_cycle;Max_cycle;Signal;HPM_P1;HPM_P2
2022/06/12 00:00:21;;;;;;;25.58;23.00;;;;;;;12.85;100.00;99626.84;2074000;28;20219;-70
2022/06/12 00:01:23;;;;;;;24.73;22.30;;;;;;;12.84;100.00;99622.59;2073869;28;20218;-70
2022/06/12 00:02:24;;;;;;;25.30;22.83;;;;;;;12.85;100.00;99626.84;2073835;28;20223;-70
2022/06/12 00:03:27;;;;;;;25.80;23.10;;;;;;;12.86;100.00;99627.66;2073428;28;20200;-70
2022/06/12 00:04:28;;;;;;;29.88;22.92;;;;;;;12.86;100.00;99625.78;2073240;28;20196;-70
2022/06/12 00:05:34;;;;;;;26.33;23.50;;;;;;;12.86;100.00;99625.00;2074049;28;20184;-70
2022/06/12 00:06:34;;;;;;;26.33;23.63;;;;;;;12.84;100.00;99627.94;2074014;28;20161;-70
2022/06/12 00:07:36;;;;;;;25.57;22.97;;;;;;;12.86;100.00;99625.00;2074077;28;20687;-70
2022/06/12 00:08:39;;;;;;;25.42;23.10;;;;;;;12.87;100.00;99622.00;2073854;28;20242;-70
2022/06/12 00:09:40;;;;;;;26.25;23.58;;;;;;;12.90;100.00;99625.97;2073822;28;20200;-70
2022/06/12 00:10:43;;;;;;;25.13;22.73;;;;;;;12.92;100.00;99624.56;2073864;28;20273;-70
2022/06/12 00:11:45;;;;;;;26.58;23.23;;;;;;;12.90;100.00;99621.41;2073796;28;20678;-70
2022/06/12 00:12:46;;;;;;;26.05;23.35;;;;;;;12.92;100.00;99627.25;2074025;28;20188;-70
2022/06/12 00:13:52;;;;;;;24.95;22.80;;;;;;;12.97;100.00;99629.84;2080920;28;20200;-70
2022/06/12 00:14:55;;;;;;;25.48;22.83;;;;;;;12.96;100.00;99617.53;2073184;28;20271;-70
2022/06/12 00:15:57;;;;;;;26.73;24.27;;;;;;;12.96;100.00;99619.44;2065245;28;20614;-70
2022/06/12 00:16:58;;;;;;;26.50;23.80;;;;;;;12.96;100.00;99609.50;2073457;28;20192;-70
2022/06/12 00:18:00;;;;;;;24.10;22.03;;;;;;;12.97;100.00;99626.38;2073895;28;20188;-70
2022/06/12 00:19:02;;;;;;;25.27;22.88;;;;;;;12.95;100.00;99615.97;2080921;28;20753;-70
2022/06/12 00:20:05;;;;;;;25.00;22.58;;;;;;;12.93;100.00;99611.97;2073113;28;20193;-70
2022/06/12 00:21:12;;;;;;;24.13;21.88;;;;;;;12.91;100.00;99625.66;2073170;28;20236;-70
2022/06/12 00:22:14;;;;;;;26.45;23.70;;;;;;;12.92;100.00;99618.41;2073919;28;20256;-72
2022/06/12 00:23:16;;;;;;;25.70;23.30;;;;;;;12.90;100.00;99615.25;2073763;28;20611;-70
2022/06/12 00:24:20;;;;;;;27.65;24.45;;;;;;;12.87;100.00;99613.97;2073723;28;20214;-70
2022/06/12 00:25:23;;;;;;;25.60;23.00;;;;;;;12.81;100.00;99623.19;2073763;28;20199;-70
2022/06/12 00:26:30;;;;;;;26.10;23.60;;;;;;;12.79;100.00;99620.00;2073074;28;20184;-72
2022/06/12 00:27:30;;;;;;;28.35;22.92;;;;;;;12.76;100.00;99617.13;2065819;28;20317;-70
2022/06/12 00:28:32;;;;;;;26.00;23.30;;;;;;;12.72;100.00;99614.25;2065213;28;20680;-70
2022/06/12 00:29:37;;;;;;;24.60;22.50;;;;;;;12.72;100.00;99614.25;2073071;28;20235;-69
2022/06/12 00:30:38;;;;;;;25.92;23.48;;;;;;;12.72;100.00;99611.56;2073997;28;20581;-70
2022/06/12 00:31:44;;;;;;;25.50;23.13;;;;;;;12.73;100.00;99613.16;2074356;28;20200;-70
2022/06/12 00:32:49;;;;;;;26.33;23.85;;;;;;;12.74;100.00;99609.38;2075448;28;20215;-70
2022/06/12 00:33:50;;;;;;;26.98;24.13;;;;;;;12.72;100.00;99615.03;2075219;28;20663;-69
2022/06/12 00:34:53;;;;;;;26.38;23.67;;;;;;;12.71;100.00;99610.00;2074631;28;20666;-70
2022/06/12 00:35:54;;;;;;;26.85;24.00;;;;;;;12.74;100.00;99614.75;2074734;28;20706;-70
2022/06/12 00:36:55;;;;;;;27.42;24.10;;;;;;;12.65;100.00;99613.84;2075420;28;20193;-70
2022/06/12 00:37:57;;;;;;;27.80;24.20;;;;;;;12.70;100.00;99611.09;2075277;28;20279;-70
2022/06/12 00:38:58;;;;;;;27.60;24.02;;;;;;;12.72;100.00;99612.38;2082694;28;20678;-69
2022/06/12 00:40:00;;;;;;;29.55;24.77;;;;;;;12.73;100.00;99621.19;2074431;28;20205;-69
2022/06/12 00:41:00;;;;;;;27.27;24.63;;;;;;;12.80;100.00;99621.59;2074670;28;20617;-70
2022/06/12 00:42:04;;;;;;;27.27;24.53;;;;;;;12.77;100.00;99611.50;2074441;28;20272;-70
2022/06/12 00:43:05;;;;;;;27.33;24.30;;;;;;;12.81;100.00;99606.31;2074559;28;20192;-70
2022/06/12 00:44:07;;;;;;;26.20;23.70;;;;;;;12.81;100.00;99607.13;2074819;28;20204;-69
2022/06/12 00:45:30;;;;;;;26.58;24.15;;;;;;;12.84;100.00;99611.06;2074557;28;20674;-70
2022/06/12 00:46:39;;;;;;;27.63;24.88;;;;;;;12.85;100.00;99613.44;2075118;28;20655;-70
2022/06/12 00:47:40;;;;;;;26.52;24.05;;;;;;;12.85;100.00;99608.09;2075194;28;20628;-70
2022/06/12 00:48:41;;;;;;;27.07;24.27;;;;;;;12.88;100.00;99606.72;2075068;28;20555;-70
2022/06/12 00:49:45;;;;;;;27.10;24.40;;;;;;;12.88;100.00;99607.53;2075225;28;20275;-70
2022/06/12 00:50:51;;;;;;;26.95;24.20;;;;;;;12.88;100.00;99610.19;2075147;28;20231;-70
2022/06/12 00:51:55;;;;;;;26.25;23.63;;;;;;;12.87;100.00;99608.63;2082610;28;20626;-69
2022/06/12 00:52:58;;;;;;;26.02;23.42;;;;;;;12.88;100.00;99601.38;2082271;28;20188;-70
2022/06/12 00:53:59;;;;;;;26.50;23.83;;;;;;;12.83;100.00;99604.13;2074375;28;20192;-71
2022/06/12 00:55:06;;;;;;;25.40;23.10;;;;;;;12.80;100.00;99605.53;2066297;28;20193;-70
2022/06/12 00:56:12;;;;;;;25.42;23.13;;;;;;;12.75;100.00;99602.94;2075313;28;20286;-69
2022/06/12 00:57:14;;;;;;;26.33;23.70;;;;;;;12.73;100.00;99605.13;2082334;28;20592;-70
2022/06/12 00:58:17;;;;;;;26.50;23.92;;;;;;;12.68;100.00;99603.34;2075014;28;20196;-70
2022/06/12 00:59:21;;;;;;;26.73;23.98;;;;;;;12.69;100.00;99598.78;2075119;28;20188;-70
2022/06/12 01:00:22;;;;;;;25.73;23.33;;;;;;;12.68;100.00;99602.53;2074326;28;20265;-70
2022/06/12 01:01:29;;;;;;;32.55;23.70;;;;;;;12.66;100.00;99600.16;2074318;28;20651;-70
2022/06/12 01:02:32;;;;;;;27.20;24.60;;;;;;;12.65;100.00;99600.47;2075302;28;20196;-69
2022/06/12 01:06:33;;;;;;;26.15;23.45;;;;;;;12.62;100.00;99601.06;2074969;28;20188;-69
2022/06/12 01:06:35;;;;;;;27.73;24.42;;;;;;;12.60;100.00;99597.88;2057935;28;20202;-70
2022/06/12 01:07:40;;;;;;;26.35;23.75;;;;;;;12.64;100.00;99596.19;2058796;28;20181;-70
2022/06/12 01:08:40;;;;;;;27.45;24.63;;;;;;;12.62;100.00;99593.03;2075075;28;20208;-70
2022/06/12 01:09:45;;;;;;;29.00;24.90;;;;;;;12.66;100.00;99591.34;2075012;28;20192;-70
2022/06/12 01:10:48;;;;;;;26.25;23.25;;;;;;;12.67;100.00;99592.91;2074280;28;20207;-70
2022/06/12 01:11:51;;;;;;;27.05;24.27;;;;;;;12.70;100.00;99589.66;2066454;28;20604;-70
2022/06/12 01:12:55;;;;;;;26.90;24.13;;;;;;;12.69;100.00;99588.09;2074314;28;20231;-70
2022/06/12 01:13:56;;;;;;;26.25;23.58;;;;;;;12.73;100.00;99589.06;2074986;28;20180;-69
2022/06/12 01:14:59;;;;;;;27.55;24.70;;;;;;;12.75;100.00;99589.56;2082746;28;20203;-70
2022/06/12 01:16:03;;;;;;;27.95;25.05;;;;;;;12.73;100.00;99591.75;2074302;28;20204;-70
2022/06/12 01:17:06;;;;;;;25.98;23.38;;;;;;;12.75;100.00;99592.22;2074326;28;20219;-70
2022/06/12 01:18:09;;;;;;;27.27;24.55;;;;;;;12.71;100.00;99592.03;2074188;28;20227;-69
2022/06/12 01:19:12;;;;;;;26.98;23.80;;;;;;;12.71;100.00;99592.03;2074304;28;20188;-70
2022/06/12 01:20:15;;;;;;;26.10;23.23;;;;;;;12.70;100.00;99585.09;2074174;28;20236;-69
2022/06/12 01:22:02;;;;;;;26.35;23.65;;;;;;;12.65;100.00;99592.44;2074197;28;20198;-70
2022/06/12 01:23:25;;;;;;;30.50;24.42;;;;;;;12.63;100.00;99594.63;2090582;28;20222;-70
2022/06/12 01:24:44;;;;;;;26.05;23.67;;;;;;;12.55;100.00;99593.41;2079279;28;20196;-70
2022/06/12 01:25:55;;;;;;;27.25;24.17;;;;;;;12.53;100.00;99586.78;2074569;28;20292;-70
2022/06/12 01:27:23;;;;;;;25.30;22.92;;;;;;;12.48;100.00;99584.97;2074881;28;20204;-69
2022/06/12 01:28:33;;;;;;;29.90;24.50;;;;;;;12.43;100.00;99585.88;2075054;28;20201;-70
2022/06/12 01:29:37;;;;;;;27.20;24.33;;;;;;;12.38;100.00;99583.28;2074842;28;20671;-70
2022/06/12 01:30:42;;;;;;;26.52;24.08;;;;;;;12.36;100.00;99590.00;2075008;28;20187;-69
2022/06/12 01:31:49;;;;;;;28.48;25.48;;;;;;;12.34;100.00;99586.84;2074733;28;20188;-70
2022/06/12 01:32:56;;;;;;;28.02;25.42;;;;;;;12.29;100.00;99585.03;2074997;28;20220;-70
2022/06/12 01:34:04;;;;;;;27.92;25.08;;;;;;;12.26;100.00;99585.63;2074984;28;20616;-69
2022/06/12 01:35:13;;;;;;;28.42;25.48;;;;;;;12.24;100.00;99584.31;2082554;28;20241;-70
2022/06/12 01:36:18;;;;;;;27.70;24.92;;;;;;;12.22;100.00;99583.81;2081483;28;20180;-70
2022/06/12 01:37:24;;;;;;;27.75;24.80;;;;;;;12.22;100.00;99594.53;2074773;28;20196;-70
2022/06/12 01:38:32;;;;;;;27.55;24.80;;;;;;;12.18;100.00;99580.97;2074746;28;20172;-69
2022/06/12 01:39:38;;;;;;;27.98;25.10;;;;;;;12.16;100.00;99580.44;2074867;28;20165;-70
2022/06/12 01:40:45;;;;;;;27.15;24.45;;;;;;;12.15;100.00;99584.19;2074738;28;20168;-70
2022/06/12 01:41:52;;;;;;;28.80;25.90;;;;;;;12.14;100.00;99579.94;2074781;28;20205;-70
2022/06/12 01:43:03;;;;;;;28.33;25.38;;;;;;;12.14;100.00;99587.97;2073602;28;20651;-70
2022/06/12 01:44:11;;;;;;;28.17;25.27;;;;;;;12.11;100.00;99583.22;2074121;28;20200;-70
2022/06/12 01:45:18;;;;;;;28.73;25.63;;;;;;;12.09;100.00;99580.03;2074870;28;20193;-70
2022/06/12 01:46:22;;;;;;;30.98;26.05;;;;;;;12.06;100.00;99583.28;2074762;28;20234;-70
2022/06/12 01:47:28;;;;;;;27.30;24.52;;;;;;;12.05;100.00;99585.16;2073949;28;20234;-70
2022/06/12 01:48:38;;;;;;;26.42;24.02;;;;;;;12.03;100.00;99584.66;2066498;28;20228;-70
2022/06/12 01:49:44;;;;;;;27.13;24.23;;;;;;;12.03;100.00;99582.00;2075179;28;20192;-70
2022/06/12 01:50:51;;;;;;;27.33;24.60;;;;;;;12.06;100.00;99591.31;2081683;28;20180;-70
2022/06/12 01:51:56;;;;;;;28.33;25.35;;;;;;;12.05;100.00;99585.16;2074858;28;20183;-70
2022/06/12 01:53:01;;;;;;;28.00;25.00;;;;;;;12.07;100.00;99588.34;2074287;28;20668;-70
2022/06/12 01:54:06;;;;;;;33.03;25.95;;;;;;;12.08;100.00;99586.47;2074078;28;20176;-70
2022/06/12 01:55:13;;;;;;;28.33;25.52;;;;;;;12.08;100.00;99586.47;2074608;28;20192;-69
2022/06/12 01:56:18;;;;;;;28.15;25.33;;;;;;;12.04;100.00;99585.47;2073911;28;20239;-70
2022/06/12 01:57:22;;;;;;;40.40;26.30;;;;;;;12.08;100.00;99583.81;2066407;28;20193;-70
2022/06/12 01:58:28;;;;;;;29.05;25.90;;;;;;;12.07;100.00;99582.19;2073983;28;20777;-70
2022/06/12 01:59:38;;;;;;;30.90;26.60;;;;;;;12.04;100.00;99580.91;2074768;28;20234;-70
2022/06/12 02:00:42;;;;;;;29.30;26.23;;;;;;;12.08;100.00;99584.59;2074821;28;20608;-70
2022/06/12 02:01:48;;;;;;;28.20;25.50;;;;;;;12.08;100.00;99581.13;2074424;28;20384;-70
2022/06/12 02:02:52;;;;;;;28.88;25.83;;;;;;;12.08;100.00;99581.13;2074847;28;20184;-70
2022/06/12 02:03:58;;;;;;;27.85;25.05;;;;;;;12.09;100.00;99585.38;2073829;28;20255;-70
2022/06/12 02:05:02;;;;;;;28.50;25.50;;;;;;;12.08;100.00;99584.59;2073986;28;20633;-70
2022/06/12 02:06:09;;;;;;;28.60;25.48;;;;;;;12.06;100.00;99586.75;2074482;28;20215;-70
2022/06/12 02:07:15;;;;;;;28.58;25.80;;;;;;;12.07;100.00;99584.88;2074797;28;20227;-70
2022/06/12 02:08:20;;;;;;;28.75;25.75;;;;;;;12.03;100.00;99582.00;2073947;28;20192;-69
2022/06/12 02:09:25;;;;;;;28.83;25.77;;;;;;;12.04;100.00;99593.47;2074035;28;20240;-70
2022/06/12 02:10:30;;;;;;;29.02;26.05;;;;;;;12.06;100.00;99591.31;2074474;28;20184;-70
2022/06/12 02:13:11;;;;;;;29.40;26.42;;;;;;;12.05;100.00;99595.06;2074306;28;20172;-70
2022/06/12 02:14:17;;;;;;;28.85;25.98;;;;;;;12.04;100.00;99594.28;2074564;28;20627;-69
2022/06/12 02:15:23;;;;;;;29.25;26.13;;;;;;;12.03;100.00;99594.56;2073782;28;20234;-70
2022/06/12 02:16:28;;;;;;;29.25;26.25;;;;;;;11.99;100.00;99596.22;2074064;28;20173;-70
2022/06/12 02:17:33;;;;;;;29.08;26.15;;;;;;;11.98;100.00;99591.97;2074383;28;20187;-69
2022/06/12 02:18:38;;;;;;;36.00;25.75;;;;;;;11.98;100.00;99605.34;2073766;28;20188;-70
2022/06/12 02:19:41;;;;;;;29.33;26.25;;;;;;;12.00;100.00;99601.31;2073848;28;20188;-70
2022/06/12 02:20:46;;;;;;;29.10;26.08;;;;;;;11.98;100.00;99603.47;2074378;28;20697;-70
2022/06/12 02:21:52;;;;;;;30.25;25.77;;;;;;;11.97;100.00;99593.06;2074295;28;20242;-70
2022/06/12 02:22:54;;;;;;;31.88;26.27;;;;;;;11.96;100.00;99594.94;2074461;28;20584;-70
2022/06/12 02:23:58;;;;;;;33.17;25.75;;;;;;;11.97;100.00;99598.41;2074281;28;20188;-70
2022/06/12 02:25:02;;;;;;;28.45;25.45;;;;;;;11.96;100.00;99594.16;2074363;28;20282;-70
2022/06/12 02:26:05;;;;;;;28.45;25.50;;;;;;;11.94;100.00;99591.78;2074329;28;20219;-70
2022/06/12 02:27:10;;;;;;;28.20;25.23;;;;;;;11.92;100.00;99599.28;2074367;28;20192;-69
2022/06/12 02:28:16;;;;;;;29.73;26.10;;;;;;;11.96;100.00;99605.63;2073869;28;20196;-70
2022/06/12 02:29:20;;;;;;;28.13;25.35;;;;;;;11.97;100.00;99595.72;2073625;28;20557;-70
2022/06/12 02:30:27;;;;;;;27.88;25.23;;;;;;;11.95;100.00;99598.69;2074385;28;20287;-70
2022/06/12 02:31:30;;;;;;;31.13;26.55;;;;;;;11.96;100.00;99602.16;2074314;28;20219;-69
2022/06/12 02:32:34;;;;;;;28.33;25.25;;;;;;;11.92;100.00;99603.84;2074367;28;20188;-69
2022/06/12 02:33:38;;;;;;;28.02;25.17;;;;;;;11.91;100.00;99599.59;2074246;28;20180;-70
2022/06/12 02:34:44;;;;;;;29.40;25.98;;;;;;;11.83;100.00;99598.38;2074331;28;20196;-70
2022/06/12 02:35:48;;;;;;;28.88;25.80;;;;;;;11.87;100.00;99602.81;2074541;28;20683;-69
2022/06/12 02:36:53;;;;;;;27.77;24.95;;;;;;;11.87;100.00;99599.34;2074407;28;20193;-70
2022/06/12 02:37:58;;;;;;;28.60;25.77;;;;;;;11.87;100.00;99604.72;2074275;28;20218;-69
2022/06/12 02:39:03;;;;;;;30.70;26.27;;;;;;;11.85;100.00;99596.97;2074332;28;20280;-70
2022/06/12 02:40:07;;;;;;;28.63;25.73;;;;;;;11.86;100.00;99601.25;2074259;28;20264;-69
2022/06/12 02:41:12;;;;;;;29.65;25.55;;;;;;;11.85;100.00;99602.34;2074192;28;20547;-70
2022/06/12 02:42:15;;;;;;;29.02;26.00;;;;;;;11.85;100.00;99596.19;2073945;28;20242;-70
2022/06/12 02:43:19;;;;;;;30.10;25.50;;;;;;;11.80;100.00;99594.38;2065742;28;20192;-69
2022/06/12 02:44:23;;;;;;;28.95;26.02;;;;;;;11.82;100.00;99594.91;2065892;28;20283;-69
2022/06/12 02:45:35;;;;;;;29.63;25.20;;;;;;;11.80;100.00;99589.03;2073653;28;20184;-70
2022/06/12 02:46:37;;;;;;;27.80;25.08;;;;;;;11.79;100.00;99597.31;2073473;28;20631;-70
2022/06/12 02:47:41;;;;;;;28.30;25.40;;;;;;;11.81;100.00;99595.16;2073738;28;20199;-69
2022/06/12 02:48:42;;;;;;;28.40;25.38;;;;;;;11.80;100.00;99596.25;2074197;28;20271;-69
2022/06/12 02:49:46;;;;;;;27.93;25.20;;;;;;;11.78;100.00;99601.88;2074214;28;20211;-70
2022/06/12 02:50:53;;;;;;;29.17;25.90;;;;;;;11.77;100.00;99602.97;2074165;28;20671;-70
2022/06/12 02:51:57;;;;;;;27.80;24.80;;;;;;;11.74;100.00;99597.41;2074323;28;20165;-70
2022/06/12 02:53:03;;;;;;;29.30;26.30;;;;;;;11.74;100.00;99600.88;2074132;28;20555;-69
2022/06/12 02:54:11;;;;;;;28.58;25.40;;;;;;;11.74;100.00;99603.53;2074537;28;20169;-70
2022/06/12 02:55:23;;;;;;;26.92;24.45;;;;;;;11.71;100.00;99598.75;2081541;28;20652;-70
2022/06/12 02:56:31;;;;;;;27.35;24.50;;;;;;;11.68;100.00;99599.34;2080357;28;20176;-70
2022/06/12 02:57:36;;;;;;;31.23;24.85;;;;;;;11.65;100.00;99599.16;2081681;28;20195;-70
2022/06/12 02:58:43;;;;;;;27.35;24.55;;;;;;;11.68;100.00;99596.69;2081312;28;20694;-70
2022/06/12 02:59:59;;;;;;;26.77;24.08;;;;;;;11.67;100.00;99600.44;2073495;28;20627;-70
2022/06/12 03:01:05;;;;;;;27.35;24.15;;;;;;;11.66;100.00;99604.19;2067193;28;20284;-70
2022/06/12 03:02:11;;;;;;;27.23;24.45;;;;;;;11.65;100.00;99597.25;2073623;28;20204;-70
2022/06/12 03:03:20;;;;;;;27.13;24.58;;;;;;;11.68;100.00;99599.34;2074371;28;20185;-69
2022/06/12 03:04:24;;;;;;;29.73;24.85;;;;;;;11.70;100.00;99599.84;2073468;28;20284;-70
2022/06/12 03:05:29;;;;;;;27.67;24.85;;;;;;;11.71;100.00;99600.63;2073456;28;20195;-69
2022/06/12 03:06:29;;;;;;;26.42;23.92;;;;;;;11.70;100.00;99602.53;2081922;28;20272;-70
2022/06/12 03:07:32;;;;;;;26.73;24.13;;;;;;;11.69;100.00;99600.94;2073399;28;20258;-70
2022/06/12 03:08:38;;;;;;;27.15;24.52;;;;;;;11.67;100.00;99594.28;2065578;28;20247;-70
2022/06/12 03:09:40;;;;;;;26.88;24.38;;;;;;;11.66;100.00;99598.84;2066406;28;20201;-69
2022/06/12 03:10:45;;;;;;;29.30;25.48;;;;;;;11.68;100.00;99601.22;2073495;28;20189;-70
2022/06/12 03:11:48;;;;;;;28.45;25.55;;;;;;;11.68;100.00;99595.88;2081947;28;20233;-69
2022/06/12 03:12:50;;;;;;;28.20;25.05;;;;;;;11.68;100.00;99601.22;2073310;28;20263;-70
2022/06/12 03:13:54;;;;;;;27.38;24.77;;;;;;;11.67;100.00;99597.75;2073434;28;20642;-69
2022/06/12 03:14:55;;;;;;;26.92;24.40;;;;;;;11.68;100.00;99602.03;2081517;28;20223;-70
2022/06/12 03:15:59;;;;;;;27.47;24.57;;;;;;;11.67;100.00;99603.09;2081750;28;20199;-70
2022/06/12 03:17:02;;;;;;;26.50;23.80;;;;;;;11.66;100.00;99603.41;2081534;28;20283;-70
2022/06/12 03:18:07;;;;;;;27.48;24.58;;;;;;;11.66;100.00;99603.41;2073366;28;20291;-70
2022/06/12 03:19:11;;;;;;;26.63;23.95;;;;;;;11.66;100.00;99603.41;2073441;28;20261;-70
2022/06/12 03:20:12;;;;;;;26.98;24.23;;;;;;;11.66;100.00;99606.06;2074206;28;20526;-70
2022/06/12 03:21:23;;;;;;;27.75;24.88;;;;;;;11.70;100.00;99612.41;2074075;28;20207;-70
2022/06/12 03:22:32;;;;;;;26.98;24.23;;;;;;;11.71;100.00;99606.78;2074207;28;20227;-70
2022/06/12 03:23:45;;;;;;;26.63;23.90;;;;;;;11.70;100.00;99599.84;2074258;28;20267;-70
2022/06/12 03:24:59;;;;;;;27.52;24.58;;;;;;;11.75;100.00;99604.34;2074222;28;20172;-69
2022/06/12 03:26:01;;;;;;;26.60;24.00;;;;;;;11.78;100.00;99604.53;2074155;28;20663;-69
2022/06/12 03:27:12;;;;;;;26.58;23.73;;;;;;;11.81;100.00;99605.84;2073973;28;20575;-69
2022/06/12 03:28:21;;;;;;;27.20;24.33;;;;;;;11.82;100.00;99602.13;2074119;28;20189;-70
2022/06/12 03:29:30;;;;;;;27.42;24.35;;;;;;;11.83;100.00;99609.06;2073549;28;20263;-70
2022/06/12 03:30:33;;;;;;;26.27;23.55;;;;;;;11.82;100.00;99602.13;2073518;28;20208;-70
2022/06/12 03:31:42;;;;;;;26.08;23.58;;;;;;;11.87;100.00;99605.50;2074202;28;20216;-70
2022/06/12 03:32:51;;;;;;;26.77;23.85;;;;;;;11.89;100.00;99606.00;2073352;28;20275;-69
2022/06/12 03:33:57;;;;;;;26.20;23.65;;;;;;;11.92;100.00;99603.84;2073698;28;20662;-70
2022/06/12 03:35:04;;;;;;;26.42;23.73;;;;;;;11.95;100.00;99600.59;2074242;28;20530;-69
2022/06/12 03:36:12;;;;;;;26.40;23.90;;;;;;;11.97;100.00;99601.06;2074250;28;20675;-70
2022/06/12 03:37:19;;;;;;;26.45;23.88;;;;;;;12.01;100.00;99605.56;2074016;28;20230;-70
2022/06/12 03:38:24;;;;;;;26.27;23.92;;;;;;;12.07;100.00;99608.94;2074181;28;20215;-70
2022/06/12 03:39:31;;;;;;;26.70;24.05;;;;;;;12.10;100.00;99611.03;2073918;28;20188;-70
2022/06/12 03:40:36;;;;;;;27.05;24.35;;;;;;;12.10;100.00;99603.81;2074165;28;20168;-69
2022/06/12 03:41:41;;;;;;;26.35;23.67;;;;;;;12.11;100.00;99612.63;2074211;28;20208;-70
2022/06/12 03:42:51;;;;;;;27.15;24.48;;;;;;;12.12;100.00;99616.88;2081400;28;20227;-70
2022/06/12 03:43:56;;;;;;;29.40;25.20;;;;;;;12.19;100.00;99616.53;2080498;28;20215;-69
2022/06/12 03:45:01;;;;;;;28.33;25.42;;;;;;;12.18;100.00;99615.72;2073251;28;20291;-69
2022/06/12 03:46:10;;;;;;;29.65;25.02;;;;;;;12.19;100.00;99617.31;2073428;28;20188;-70
2022/06/12 03:47:15;;;;;;;28.58;25.75;;;;;;;12.22;100.00;99618.59;2074167;28;20181;-70
2022/06/12 03:48:24;;;;;;;26.92;23.95;;;;;;;12.23;100.00;99622.88;2073923;28;20192;-69
2022/06/12 03:49:30;;;;;;;29.02;25.05;;;;;;;12.22;100.00;99621.28;2073924;28;20180;-69
2022/06/12 03:50:36;;;;;;;28.20;24.67;;;;;;;12.23;100.00;99618.31;2074192;28;20173;-70
2022/06/12 03:51:41;;;;;;;27.30;24.73;;;;;;;12.32;100.00;99624.56;2074066;28;20195;-69
2022/06/12 03:52:48;;;;;;;30.85;26.20;;;;;;;12.35;100.00;99615.97;2073231;28;20192;-70
2022/06/12 03:53:54;;;;;;;26.73;24.02;;;;;;;12.42;100.00;99620.94;2073639;28;20169;-70
2022/06/12 03:55:00;;;;;;;26.55;24.02;;;;;;;12.45;100.00;99623.03;2073277;28;20675;-70
2022/06/12 03:58:51;;;;;;;29.00;24.52;;;;;;;12.45;100.00;99615.00;2073901;28;20204;-69
2022/06/12 03:59:55;;;;;;;27.85;25.15;;;;;;;12.51;100.00;99615.69;2073190;28;20200;-70
2022/06/12 04:00:57;;;;;;;27.33;24.23;;;;;;;12.50;100.00;99616.78;2073378;28;20231;-70
2022/06/12 04:01:59;;;;;;;27.85;25.02;;;;;;;12.55;100.00;99614.81;2073957;28;20195;-70
2022/06/12 04:03:05;;;;;;;27.77;25.05;;;;;;;12.52;100.00;99619.97;2081306;28;20215;-70
2022/06/12 04:04:07;;;;;;;27.35;24.83;;;;;;;12.52;100.00;99614.63;2081004;28;20647;-70
2022/06/12 04:05:12;;;;;;;29.90;24.58;;;;;;;12.55;100.00;99606.78;2072904;28;20295;-72
2022/06/12 04:06:15;;;;;;;27.58;24.63;;;;;;;12.56;100.00;99620.97;2073279;28;20344;-70
2022/06/12 04:07:18;;;;;;;27.90;25.13;;;;;;;12.54;100.00;99613.25;2075345;28;20275;-70
2022/06/12 04:08:22;;;;;;;30.23;24.75;;;;;;;12.59;100.00;99615.00;2075395;28;20267;-69
2022/06/12 04:09:27;;;;;;;29.08;25.83;;;;;;;12.63;100.00;99616.81;2075397;28;20678;-69
2022/06/12 04:10:29;;;;;;;28.42;25.65;;;;;;;12.62;100.00;99614.44;2074681;28;20227;-70
2022/06/12 04:11:32;;;;;;;31.20;25.77;;;;;;;12.65;100.00;99613.84;2074879;28;20223;-70
2022/06/12 04:12:34;;;;;;;27.40;24.60;;;;;;;12.69;100.00;99612.97;2075492;28;20655;-69
2022/06/12 04:13:37;;;;;;;27.73;24.75;;;;;;;12.68;100.00;99613.25;2075340;28;20185;-69
2022/06/12 04:14:41;;;;;;;27.45;24.60;;;;;;;12.69;100.00;99612.19;2075492;28;20185;-70
2022/06/12 04:15:46;;;;;;;27.70;24.90;;;;;;;12.79;100.00;99614.66;2074718;28;20757;-70
2022/06/12 04:16:50;;;;;;;27.33;24.60;;;;;;;12.84;100.00;99627.94;2075031;28;20276;-71
2022/06/12 04:17:51;;;;;;;27.50;24.77;;;;;;;12.84;100.00;99619.09;2075484;28;20674;-70
2022/06/12 04:18:52;;;;;;;27.42;24.83;;;;;;;12.85;100.00;99623.38;2075304;28;20545;-70
2022/06/12 04:20:03;;;;;;;31.87;24.87;;;;;;;12.84;100.00;99632.50;2074889;28;20300;-69
2022/06/12 04:21:07;;;;;;;26.50;23.83;;;;;;;12.93;100.00;99628.84;2067763;28;20562;-71
2022/06/12 04:22:12;;;;;;;28.35;25.33;;;;;;;13.00;100.00;99629.25;2074640;28;20188;-70
2022/06/12 04:23:18;;;;;;;27.83;24.90;;;;;;;13.03;100.00;99622.50;2075291;28;20231;-71
2022/06/12 04:24:25;;;;;;;32.00;25.40;;;;;;;13.07;100.00;99626.16;2075522;28;20267;-69
2022/06/12 04:25:32;;;;;;;27.67;24.88;;;;;;;13.11;100.00;99629.81;2075304;28;20260;-70
2022/06/12 04:26:36;;;;;;;26.88;24.38;;;;;;;13.12;100.00;99623.41;2075377;28;20180;-69
2022/06/12 04:27:40;;;;;;;27.70;25.05;;;;;;;13.18;100.00;99626.75;2075347;28;20279;-70
2022/06/12 04:28:44;;;;;;;26.67;24.10;;;;;;;13.23;100.00;99630.16;2074701;28;20192;-69
2022/06/12 04:29:50;;;;;;;28.48;24.70;;;;;;;13.27;100.00;99636.50;2074549;28;20335;-70
2022/06/12 04:30:53;;;;;;;34.15;24.58;;;;;;;13.29;100.00;99628.16;2075374;28;20203;-69
2022/06/12 04:31:57;;;;;;;28.55;25.75;;;;;;;13.34;100.00;99625.38;2075318;28;20204;-69
2022/06/12 04:33:16;;;;;;;27.35;24.73;;;;;;;13.37;100.00;99624.78;2075332;28;20223;-70
2022/06/12 04:34:20;;;;;;;27.95;25.10;;;;;;;13.39;100.00;99638.69;2075271;28;20176;-70
2022/06/12 04:35:22;;;;;;;27.15;24.65;;;;;;;13.36;100.00;99627.75;2082758;28;20785;-70
2022/06/12 04:36:24;;;;;;;27.20;24.83;;;;;;;13.44;100.00;99630.53;2074487;28;20200;-70
2022/06/12 04:37:29;;;;;;;26.67;24.02;;;;;;;13.46;100.00;99627.53;2066651;28;20208;-71
2022/06/12 04:38:32;;;;;;;27.55;24.63;;;;;;;13.50;100.00;99629.31;2067064;28;20205;-69
2022/06/12 04:39:35;;;;;;;27.73;24.95;;;;;;;13.55;100.00;99623.03;2074608;28;20323;-70
2022/06/12 04:40:36;;;;;;;27.80;25.10;;;;;;;13.60;100.00;99627.53;2075330;28;20196;-69
2022/06/12 04:41:37;;;;;;;27.03;24.53;;;;;;;13.57;100.00;99639.66;2075301;28;20184;-69
2022/06/12 04:42:38;;;;;;;27.05;24.40;;;;;;;13.58;100.00;99631.28;2075200;28;20240;-69
2022/06/12 04:43:40;;;;;;;26.73;24.07;;;;;;;13.57;100.00;99640.44;2075186;28;20677;-70
2022/06/12 04:44:41;;;;;;;27.00;24.33;;;;;;;13.62;100.00;99636.84;2075070;28;20216;-72
2022/06/12 04:45:43;;;;;;;26.10;23.53;;;;;;;13.66;100.00;99637.03;2075243;28;20203;-70
2022/06/12 04:46:47;;;;;;;25.90;23.40;;;;;;;13.71;100.00;99637.72;2075110;28;20207;-70
2022/06/12 04:47:48;;;;;;;26.67;23.73;;;;;;;13.68;100.00;99640.22;2074450;28;20203;-70
2022/06/12 04:48:52;;;;;;;26.17;23.60;;;;;;;13.76;100.00;99647.53;2074850;28;20650;-70
2022/06/12 04:49:52;;;;;;;26.00;23.40;;;;;;;13.77;100.00;99641.09;2075103;28;20686;-70
2022/06/12 04:50:55;;;;;;;26.50;23.80;;;;;;;13.82;100.00;99641.78;2075065;28;20552;-70
2022/06/12 04:51:58;;;;;;;26.13;23.60;;;;;;;13.85;100.00;99641.16;2075182;28;20280;-70
2022/06/12 04:52:59;;;;;;;25.23;22.95;;;;;;;13.93;100.00;99650.38;2082579;28;20199;-70
2022/06/12 04:54:01;;;;;;;26.77;24.17;;;;;;;13.97;100.00;99642.50;2082721;28;20187;-70
2022/06/12 04:55:02;;;;;;;25.52;23.33;;;;;;;14.03;100.00;99652.03;2075069;28;20193;-70
2022/06/12 04:56:05;;;;;;;26.33;23.60;;;;;;;14.03;100.00;99644.75;2082554;28;20200;-70
2022/06/12 04:57:08;;;;;;;24.77;22.58;;;;;;;14.10;100.00;99650.50;2082458;28;20191;-69
2022/06/12 04:58:08;;;;;;;25.50;23.00;;;;;;;14.10;100.00;99647.03;2075200;28;20203;-70
2022/06/12 04:59:12;;;;;;;24.90;22.60;;;;;;;14.19;100.00;99647.09;2074329;28;20196;-70
2022/06/12 05:00:14;;;;;;;24.77;22.63;;;;;;;14.23;100.00;99646.16;2074649;28;20232;-70
2022/06/12 05:01:15;;;;;;;24.88;22.55;;;;;;;14.28;100.00;99645.25;2074959;28;20192;-69